createdAt,value
2017-09-12T00:00:50.089Z,53.40
2017-09-12T00:03:18.219Z,53.70
2017-09-12T00:05:47.661Z,53.70
2017-09-12T00:08:16.650Z,53.70
2017-09-12T00:10:44.784Z,53.80
2017-09-12T00:13:13.697Z,54.50
2017-09-12T00:15:41.825Z,54.50
2017-09-12T00:18:09.969Z,54.70
2017-09-12T00:20:38.106Z,54.60
2017-09-12T00:23:06.223Z,54.40
2017-09-12T00:25:34.373Z,54.50
2017-09-12T00:28:02.485Z,54.50
2017-09-12T00:30:30.625Z,54.30
2017-09-12T00:32:58.749Z,54.20
2017-09-12T00:35:27.644Z,55.10
2017-09-12T00:37:56.577Z,54.90
2017-09-12T00:40:24.721Z,54.90
2017-09-12T00:42:53.600Z,55.40
2017-09-12T00:45:22.476Z,55.00
2017-09-12T00:47:50.620Z,55.00
2017-09-12T00:50:18.758Z,55.40
2017-09-12T00:52:46.894Z,55.50
2017-09-12T00:55:15.013Z,55.90
2017-09-12T00:57:43.736Z,55.80
2017-09-12T01:00:13.388Z,55.70
2017-09-12T01:02:41.505Z,55.70
2017-09-12T01:05:09.636Z,56.30
2017-09-12T01:07:37.760Z,56.40
2017-09-12T01:10:05.888Z,56.70
2017-09-12T01:12:34.017Z,56.30
2017-09-12T01:15:02.161Z,57.00
2017-09-12T01:17:30.820Z,57.00
2017-09-12T01:19:58.935Z,57.50
2017-09-12T01:22:27.068Z,57.80
2017-09-12T01:24:55.191Z,57.30
2017-09-12T01:27:24.094Z,57.40
2017-09-12T01:29:53.000Z,57.70
2017-09-12T01:32:21.122Z,57.60
2017-09-12T01:34:49.260Z,57.50
2017-09-12T01:37:17.385Z,57.40
2017-09-12T01:39:45.525Z,57.50
2017-09-12T01:42:13.682Z,57.60
2017-09-12T01:44:41.806Z,57.60
2017-09-12T01:47:10.713Z,57.70
2017-09-12T01:49:39.580Z,58.00
2017-09-12T01:52:08.485Z,57.60
2017-09-12T01:54:37.371Z,57.90
2017-09-12T01:57:06.268Z,58.30
2017-09-12T01:59:35.145Z,58.20
2017-09-12T02:02:04.043Z,58.60
2017-09-12T02:04:32.927Z,58.60
2017-09-12T02:07:01.844Z,58.50
2017-09-12T02:09:30.728Z,58.30
2017-09-12T02:11:58.852Z,58.20
2017-09-12T02:14:27.902Z,58.20
2017-09-12T02:16:57.022Z,57.90
2017-09-12T02:19:25.132Z,58.40
2017-09-12T02:21:54.017Z,58.60
2017-09-12T02:24:22.159Z,58.60
2017-09-12T02:26:50.290Z,59.00
2017-09-12T02:29:19.177Z,59.30
2017-09-12T02:31:47.335Z,59.30
2017-09-12T02:34:16.231Z,59.00
2017-09-12T02:36:44.356Z,58.90
2017-09-12T02:39:12.502Z,59.40
2017-09-12T02:41:40.627Z,60.00
2017-09-12T02:44:08.766Z,59.70
2017-09-12T02:46:36.913Z,59.80
2017-09-12T02:49:05.058Z,59.30
2017-09-12T02:51:33.945Z,59.70
2017-09-12T02:54:02.086Z,59.00
2017-09-12T02:56:30.230Z,59.30
2017-09-12T02:58:58.348Z,58.50
2017-09-12T03:01:26.489Z,58.20
2017-09-12T03:03:54.616Z,58.10
2017-09-12T03:06:23.518Z,57.80
2017-09-12T03:08:51.676Z,57.70
2017-09-12T03:11:20.582Z,57.50
2017-09-12T03:13:48.728Z,57.50
2017-09-12T03:16:16.845Z,57.20
2017-09-12T03:18:44.986Z,57.90
2017-09-12T03:21:13.867Z,57.50
2017-09-12T03:23:42.809Z,57.50
2017-09-12T03:26:12.089Z,57.40
2017-09-12T03:28:40.236Z,57.90
2017-09-12T03:31:09.166Z,57.80
2017-09-12T03:33:37.280Z,57.80
2017-09-12T03:36:05.413Z,57.80
2017-09-12T03:38:33.536Z,57.80
2017-09-12T03:41:01.691Z,57.90
2017-09-12T03:43:29.812Z,58.10
2017-09-12T03:45:57.970Z,58.60
2017-09-12T03:48:26.878Z,58.60
2017-09-12T03:50:55.004Z,58.60
2017-09-12T03:53:23.148Z,58.90
2017-09-12T03:55:51.268Z,58.20
2017-09-12T03:58:20.184Z,58.80
2017-09-12T04:00:48.294Z,58.70
2017-09-12T04:03:16.429Z,59.20
2017-09-12T04:05:44.556Z,59.30
2017-09-12T04:08:13.396Z,59.20
2017-09-12T04:10:41.541Z,59.50
2017-09-12T04:13:09.672Z,59.90
2017-09-12T04:15:37.803Z,60.10
2017-09-12T04:18:05.950Z,60.30
2017-09-12T04:20:34.842Z,60.70
2017-09-12T04:23:03.741Z,60.40
2017-09-12T04:25:31.892Z,60.40
2017-09-12T04:28:00.027Z,59.90
2017-09-12T04:30:29.269Z,60.20
2017-09-12T04:32:58.169Z,61.00
2017-09-12T04:35:26.300Z,61.00
2017-09-12T04:37:54.446Z,61.00
2017-09-12T04:40:22.568Z,61.90
2017-09-12T04:42:51.460Z,61.30
2017-09-12T04:45:20.364Z,61.20
2017-09-12T04:47:49.277Z,61.70
2017-09-12T04:50:17.422Z,61.70
2017-09-12T04:52:46.417Z,62.30
2017-09-12T04:55:15.859Z,62.30
2017-09-12T04:57:44.738Z,62.40
2017-09-12T05:00:12.899Z,62.40
2017-09-12T05:02:41.044Z,63.20
2017-09-12T05:05:09.618Z,64.00
2017-09-12T05:07:37.778Z,64.60
2017-09-12T05:10:05.902Z,64.60
2017-09-12T05:12:34.028Z,64.90
2017-09-12T05:15:02.152Z,65.20
2017-09-12T05:17:30.313Z,65.60
2017-09-12T05:19:58.442Z,65.80
2017-09-12T05:22:26.577Z,66.30
2017-09-12T05:24:54.723Z,66.70
2017-09-12T05:27:23.624Z,68.20
2017-09-12T05:29:51.767Z,68.20
2017-09-12T05:32:20.644Z,69.40
2017-09-12T05:34:48.780Z,69.10
2017-09-12T05:37:17.664Z,69.50
2017-09-12T05:39:46.577Z,69.70
2017-09-12T05:42:14.696Z,69.70
2017-09-12T05:44:42.834Z,70.20
2017-09-12T05:47:10.983Z,70.40
2017-09-12T05:49:39.862Z,70.60
2017-09-12T05:52:08.779Z,70.80
2017-09-12T05:54:36.904Z,70.80
2017-09-12T05:57:05.040Z,70.90
2017-09-12T05:59:33.218Z,71.00
2017-09-12T06:02:01.345Z,70.90
2017-09-12T06:04:30.237Z,71.20
2017-09-12T06:06:58.619Z,71.10
2017-09-12T06:09:26.800Z,71.30
2017-09-12T06:11:54.925Z,71.50
2017-09-12T06:14:24.016Z,72.40
2017-09-12T06:16:52.149Z,72.70
2017-09-12T06:19:20.269Z,72.60
2017-09-12T06:21:49.185Z,72.30
2017-09-12T06:24:17.316Z,72.30
2017-09-12T06:26:46.214Z,72.40
2017-09-12T06:29:15.108Z,72.10
2017-09-12T06:31:43.269Z,72.10
2017-09-12T06:34:12.176Z,72.40
2017-09-12T06:36:40.308Z,72.30
2017-09-12T06:39:08.444Z,71.60
2017-09-12T06:41:36.571Z,71.50
2017-09-12T06:44:04.736Z,71.60
2017-09-12T06:46:33.672Z,71.00
2017-09-12T06:49:02.580Z,70.90
2017-09-12T06:51:30.693Z,70.80
2017-09-12T06:53:58.845Z,70.40
2017-09-12T06:56:26.971Z,70.20
2017-09-12T06:58:55.140Z,70.20
2017-09-12T07:01:24.048Z,70.10
2017-09-12T07:03:53.404Z,70.10
2017-09-12T07:06:21.521Z,71.00
2017-09-12T07:08:49.649Z,71.20
2017-09-12T07:11:17.805Z,72.00
2017-09-12T07:13:46.528Z,71.80
2017-09-12T07:16:15.430Z,71.80
2017-09-12T07:18:43.560Z,71.70
2017-09-12T07:21:11.729Z,71.30
2017-09-12T07:23:41.381Z,71.60
2017-09-12T07:26:09.511Z,70.90
2017-09-12T07:28:37.676Z,70.50
2017-09-12T07:31:05.797Z,70.30
2017-09-12T07:33:33.941Z,70.40
2017-09-12T07:36:02.626Z,70.90
2017-09-12T07:38:30.762Z,70.70
2017-09-12T07:40:58.972Z,70.30
2017-09-12T07:43:27.109Z,69.60
2017-09-12T07:45:55.233Z,69.70
2017-09-12T07:48:24.951Z,70.00
2017-09-12T07:50:54.174Z,69.80
2017-09-12T07:53:22.312Z,69.70
2017-09-12T07:55:51.216Z,70.10
2017-09-12T07:58:19.356Z,70.00
2017-09-12T08:00:47.506Z,69.40
2017-09-12T08:03:15.631Z,69.40
2017-09-12T08:05:43.770Z,69.60
2017-09-12T08:08:12.664Z,69.20
2017-09-12T08:10:41.552Z,68.70
2017-09-12T08:13:09.703Z,68.70
2017-09-12T08:15:37.848Z,68.40
2017-09-12T08:18:06.749Z,68.20
2017-09-12T08:20:34.884Z,68.20
2017-09-12T08:23:03.016Z,68.10
2017-09-12T08:25:32.289Z,68.60
2017-09-12T08:28:00.421Z,68.70
2017-09-12T08:30:28.996Z,69.20
2017-09-12T08:32:57.141Z,69.70
2017-09-12T08:35:26.051Z,69.20
2017-09-12T08:37:54.200Z,69.10
2017-09-12T08:40:23.101Z,68.20
2017-09-12T08:42:51.251Z,68.20
2017-09-12T08:45:20.153Z,67.20
2017-09-12T08:47:49.067Z,66.90
2017-09-12T08:50:17.197Z,66.90
2017-09-12T08:52:46.138Z,67.80
2017-09-12T08:55:14.286Z,67.40
2017-09-12T08:57:42.426Z,66.60
2017-09-12T09:00:10.569Z,66.90
2017-09-12T09:02:38.726Z,66.80
2017-09-12T09:05:06.874Z,66.60
2017-09-12T09:07:35.017Z,66.60
2017-09-12T09:10:03.173Z,66.20
2017-09-12T09:12:31.676Z,66.10
2017-09-12T09:14:59.822Z,67.00
2017-09-12T09:17:27.958Z,67.60
2017-09-12T09:19:56.077Z,68.60
2017-09-12T09:22:24.225Z,68.00
2017-09-12T09:24:52.359Z,69.40
2017-09-12T09:27:20.713Z,69.30
2017-09-12T09:29:49.620Z,69.30
2017-09-12T09:32:17.749Z,69.20
2017-09-12T09:34:45.890Z,67.20
2017-09-12T09:37:14.042Z,65.00
2017-09-12T09:39:42.945Z,65.20
2017-09-12T09:42:11.070Z,65.20
2017-09-12T09:44:39.974Z,65.70
2017-09-12T09:47:09.717Z,67.40
2017-09-12T09:49:37.888Z,67.40
2017-09-12T09:52:06.037Z,64.60
2017-09-12T09:54:34.180Z,64.40
2017-09-12T09:57:02.330Z,63.20
2017-09-12T09:59:31.237Z,63.80
2017-09-12T10:01:59.364Z,63.70
2017-09-12T10:04:27.505Z,63.40
2017-09-12T10:06:56.420Z,62.50
2017-09-12T10:09:24.558Z,62.50
2017-09-12T10:11:52.696Z,59.90
2017-09-12T10:14:20.837Z,60.80
2017-09-12T10:16:48.964Z,60.50
2017-09-12T10:19:17.100Z,59.10
2017-09-12T10:21:45.258Z,57.60
2017-09-12T10:24:13.373Z,58.10
2017-09-12T10:26:41.530Z,58.60
2017-09-12T10:29:10.412Z,56.30
2017-09-12T10:31:38.572Z,56.20
2017-09-12T10:34:06.697Z,57.60
2017-09-12T10:36:35.609Z,55.50
2017-09-12T10:39:03.744Z,56.10
2017-09-12T10:41:31.884Z,53.40
2017-09-12T10:44:01.275Z,54.60
2017-09-12T10:46:29.387Z,54.60
2017-09-12T10:48:57.528Z,55.30
2017-09-12T10:51:25.641Z,53.80
2017-09-12T10:53:53.777Z,54.60
2017-09-12T10:56:21.916Z,53.90
2017-09-12T10:58:50.824Z,54.10
2017-09-12T11:01:18.965Z,54.10
2017-09-12T11:03:47.873Z,54.80
2017-09-12T11:06:16.011Z,54.80
2017-09-12T11:08:44.142Z,54.20
2017-09-12T11:11:13.477Z,53.80
2017-09-12T11:13:41.605Z,53.10
2017-09-12T11:16:09.763Z,54.00
2017-09-12T11:18:38.711Z,51.70
2017-09-12T11:21:06.822Z,51.50
2017-09-12T11:23:35.738Z,49.10
2017-09-12T11:26:03.867Z,49.10
2017-09-12T11:28:32.100Z,49.90
2017-09-12T11:31:00.206Z,50.10
2017-09-12T11:33:28.355Z,51.60
2017-09-12T11:35:56.494Z,51.20
2017-09-12T11:38:24.653Z,51.50
2017-09-12T11:40:53.552Z,51.90
2017-09-12T11:43:21.691Z,51.90
2017-09-12T11:45:49.840Z,51.50
2017-09-12T11:48:17.969Z,51.00
2017-09-12T11:50:46.110Z,51.70
2017-09-12T11:53:14.239Z,51.80
2017-09-12T11:55:42.379Z,51.00
2017-09-12T11:58:11.299Z,51.30
2017-09-12T12:00:39.418Z,51.30
2017-09-12T12:03:07.585Z,51.20
2017-09-12T12:05:35.705Z,50.50
2017-09-12T12:08:03.844Z,50.80
2017-09-12T12:10:31.989Z,50.60
2017-09-12T12:13:00.141Z,50.10
2017-09-12T12:15:29.039Z,50.40
2017-09-12T12:17:57.947Z,52.10
2017-09-12T12:20:26.084Z,52.10
2017-09-12T12:22:54.214Z,52.00
2017-09-12T12:25:22.360Z,50.50
2017-09-12T12:27:50.516Z,47.90
2017-09-12T12:30:19.396Z,47.30
2017-09-12T12:32:48.305Z,47.90
2017-09-12T12:35:17.285Z,47.90
2017-09-12T12:37:46.185Z,49.70
2017-09-12T12:40:14.389Z,49.60
2017-09-12T12:42:43.371Z,49.60
2017-09-12T12:45:11.498Z,49.20
2017-09-12T12:47:39.646Z,49.90
2017-09-12T12:50:07.820Z,49.00
2017-09-12T12:52:36.692Z,49.20
2017-09-12T12:55:05.622Z,47.90
2017-09-12T12:57:34.344Z,47.80
2017-09-12T13:00:02.492Z,47.70
2017-09-12T13:02:30.612Z,49.10
2017-09-12T13:04:59.565Z,50.20
2017-09-12T13:07:27.709Z,50.20
2017-09-12T13:09:55.863Z,50.30
2017-09-12T13:12:24.760Z,48.50
2017-09-12T13:14:52.896Z,48.40
2017-09-12T13:17:21.096Z,48.30
2017-09-12T13:19:49.989Z,49.40
2017-09-12T13:22:18.127Z,49.40
2017-09-12T13:24:46.259Z,49.70
2017-09-12T13:27:14.377Z,49.50
2017-09-12T13:29:43.332Z,53.00
2017-09-12T13:32:11.454Z,52.60
2017-09-12T13:34:40.360Z,57.80
2017-09-12T13:37:08.489Z,57.70
2017-09-12T13:39:37.429Z,60.60
2017-09-12T13:42:05.580Z,60.60
2017-09-12T13:44:34.469Z,63.80
2017-09-12T13:47:03.421Z,70.10
2017-09-12T13:49:31.547Z,70.00
2017-09-12T13:52:00.456Z,66.90
2017-09-12T13:54:28.581Z,66.90
2017-09-12T13:56:57.485Z,67.50
2017-09-12T13:59:26.376Z,65.50
2017-09-12T14:01:55.280Z,63.90
2017-09-12T14:04:23.429Z,63.90
2017-09-12T14:06:52.354Z,62.10
2017-09-12T14:09:20.491Z,62.10
2017-09-12T14:11:49.373Z,53.00
2017-09-12T14:14:17.520Z,53.00
2017-09-12T14:16:47.285Z,52.90
2017-09-12T14:19:15.457Z,52.90
2017-09-12T14:21:44.340Z,55.20
2017-09-12T14:24:13.269Z,55.50
2017-09-12T14:26:41.440Z,55.50
2017-09-12T14:29:09.570Z,57.00
2017-09-12T14:31:38.475Z,49.50
2017-09-12T14:34:07.537Z,49.40
2017-09-12T14:36:35.685Z,45.20
2017-09-12T14:39:03.816Z,43.20
2017-09-12T14:41:31.957Z,40.20
2017-09-12T14:44:00.086Z,42.50
2017-09-12T14:46:28.201Z,43.90
2017-09-12T14:48:56.354Z,46.30
2017-09-12T14:51:25.135Z,49.50
2017-09-12T14:53:53.282Z,50.80
2017-09-12T14:56:23.445Z,52.00
2017-09-12T14:58:51.544Z,52.90
2017-09-12T15:01:19.681Z,54.50
2017-09-12T15:03:47.827Z,54.40
2017-09-12T15:06:15.964Z,53.80
2017-09-12T15:08:44.880Z,53.50
2017-09-12T15:11:12.996Z,53.60
2017-09-12T15:13:41.159Z,53.20
2017-09-12T15:16:09.291Z,52.90
2017-09-12T15:18:37.429Z,51.80
2017-09-12T15:21:06.333Z,52.40
2017-09-12T15:23:35.260Z,52.20
2017-09-12T15:26:05.161Z,52.20
2017-09-12T15:28:33.303Z,53.30
2017-09-12T15:31:02.202Z,54.20
2017-09-12T15:33:30.351Z,54.20
2017-09-12T15:35:58.473Z,55.10
2017-09-12T15:38:26.660Z,55.70
2017-09-12T15:40:54.795Z,54.00
2017-09-12T15:43:22.930Z,54.20
2017-09-12T15:45:51.066Z,55.20
2017-09-12T15:48:19.197Z,56.70
2017-09-12T15:50:48.120Z,59.60
2017-09-12T15:53:16.255Z,59.60
2017-09-12T15:55:44.369Z,60.60
2017-09-12T15:58:12.720Z,61.30
2017-09-12T16:00:41.865Z,62.30
2017-09-12T16:03:09.996Z,62.20
2017-09-12T16:05:38.121Z,62.90
2017-09-12T16:08:06.787Z,63.50
2017-09-12T16:10:34.909Z,63.90
2017-09-12T16:13:03.824Z,63.60
2017-09-12T16:15:32.041Z,63.00
2017-09-12T16:18:00.180Z,62.00
2017-09-12T16:20:28.321Z,61.20
2017-09-12T16:22:56.674Z,61.30
2017-09-12T16:25:24.814Z,61.30
2017-09-12T16:27:52.953Z,61.30
2017-09-12T16:30:21.100Z,61.70
2017-09-12T16:32:49.993Z,61.10
2017-09-12T16:35:19.898Z,61.40
2017-09-12T16:37:49.580Z,61.50
2017-09-12T16:40:19.057Z,61.20
2017-09-12T16:42:47.978Z,61.20
2017-09-12T16:45:16.912Z,61.40
2017-09-12T16:47:45.825Z,61.20
2017-09-12T16:50:13.999Z,61.20
2017-09-12T16:52:42.898Z,61.40
2017-09-12T16:55:11.873Z,61.40
2017-09-12T16:57:39.987Z,61.30
2017-09-12T17:00:08.163Z,61.40
2017-09-12T17:02:37.106Z,61.10
2017-09-12T17:05:05.251Z,61.00
2017-09-12T17:07:33.378Z,60.70
2017-09-12T17:10:01.529Z,61.50
2017-09-12T17:12:29.691Z,62.50
2017-09-12T17:14:57.843Z,64.50
2017-09-12T17:17:26.753Z,64.80
2017-09-12T17:19:54.887Z,64.70
2017-09-12T17:22:23.021Z,63.70
2017-09-12T17:24:51.180Z,64.10
2017-09-12T17:27:19.292Z,63.90
2017-09-12T17:29:47.444Z,63.90
2017-09-12T17:32:15.627Z,64.30
2017-09-12T17:34:44.537Z,63.40
2017-09-12T17:37:12.673Z,63.40
2017-09-12T17:39:40.849Z,63.00
2017-09-12T17:42:08.983Z,62.90
2017-09-12T17:44:37.141Z,62.40
2017-09-12T17:47:05.278Z,62.50
2017-09-12T17:49:34.184Z,62.90
2017-09-12T17:52:03.104Z,62.50
2017-09-12T17:54:31.225Z,62.50
2017-09-12T17:57:00.164Z,62.20
2017-09-12T17:59:28.314Z,62.20
2017-09-12T18:01:57.902Z,62.20
2017-09-12T18:04:26.042Z,62.20
2017-09-12T18:06:54.185Z,61.90
2017-09-12T18:09:22.341Z,62.10
2017-09-12T18:11:50.495Z,62.40
2017-09-12T18:14:19.440Z,62.80
2017-09-12T18:16:47.543Z,62.80
2017-09-12T18:19:16.455Z,62.40
2017-09-12T18:21:44.584Z,62.30
2017-09-12T18:24:12.737Z,61.50
2017-09-12T18:26:41.645Z,58.70
2017-09-12T18:29:09.808Z,58.70
2017-09-12T18:31:38.808Z,58.00
2017-09-12T18:34:07.746Z,57.80
2017-09-12T18:36:35.884Z,57.80
2017-09-12T18:39:04.043Z,57.50
2017-09-12T18:41:32.206Z,58.00
2017-09-12T18:44:00.332Z,57.90
2017-09-12T18:46:28.491Z,57.90
2017-09-12T18:48:56.637Z,58.30
2017-09-12T18:51:25.586Z,58.40
2017-09-12T18:53:54.493Z,58.80
2017-09-12T18:56:22.650Z,58.80
2017-09-12T18:58:50.790Z,58.90
2017-09-12T19:01:18.933Z,58.80
2017-09-12T19:03:47.833Z,58.20
2017-09-12T19:06:15.990Z,58.20
2017-09-12T19:08:44.565Z,58.20
2017-09-12T19:11:12.749Z,58.40
2017-09-12T19:13:41.653Z,59.30
2017-09-12T19:16:09.837Z,59.20
2017-09-12T19:18:38.749Z,59.70
2017-09-12T19:21:06.902Z,59.70
2017-09-12T19:23:35.016Z,59.40
2017-09-12T19:26:03.160Z,59.10
2017-09-12T19:28:31.303Z,59.50
2017-09-12T19:30:59.446Z,59.10
2017-09-12T19:33:28.357Z,59.70
2017-09-12T19:35:57.263Z,60.10
2017-09-12T19:38:25.662Z,59.80
2017-09-12T19:40:53.793Z,60.00
2017-09-12T19:43:22.701Z,61.10
2017-09-12T19:45:50.866Z,61.00
2017-09-12T19:48:19.802Z,62.10
2017-09-12T19:50:47.930Z,62.00
2017-09-12T19:53:16.863Z,62.30
2017-09-12T19:55:45.014Z,62.30
2017-09-12T19:58:13.360Z,63.40
2017-09-12T20:00:41.492Z,63.50
2017-09-12T20:03:09.634Z,63.20
2017-09-12T20:05:37.764Z,63.20
2017-09-12T20:08:05.902Z,62.80
2017-09-12T20:10:34.082Z,63.10
2017-09-12T20:13:02.220Z,62.70
2017-09-12T20:15:30.379Z,62.90
2017-09-12T20:17:59.300Z,63.20
2017-09-12T20:20:28.616Z,63.20
2017-09-12T20:22:56.738Z,63.40
2017-09-12T20:25:26.190Z,63.90
2017-09-12T20:27:55.017Z,63.80
2017-09-12T20:30:23.164Z,64.40
2017-09-12T20:32:51.314Z,63.80
2017-09-12T20:35:20.045Z,63.80
2017-09-12T20:37:48.208Z,63.80
2017-09-12T20:40:16.352Z,64.20
2017-09-12T20:42:44.461Z,63.80
2017-09-12T20:45:13.380Z,63.80
2017-09-12T20:47:41.548Z,63.80
2017-09-12T20:50:10.457Z,64.50
2017-09-12T20:52:38.805Z,64.50
2017-09-12T20:55:06.919Z,64.70
2017-09-12T20:57:35.832Z,65.60
2017-09-12T21:00:04.911Z,65.60
2017-09-12T21:02:33.078Z,65.40
2017-09-12T21:05:01.200Z,64.90
2017-09-12T21:07:30.105Z,65.50
2017-09-12T21:09:58.242Z,65.40
2017-09-12T21:12:26.385Z,65.40
2017-09-12T21:14:54.513Z,65.20
2017-09-12T21:17:23.920Z,65.10
2017-09-12T21:19:52.824Z,65.10
2017-09-12T21:22:20.995Z,65.10
2017-09-12T21:24:49.132Z,65.30
2017-09-12T21:27:17.269Z,65.40
2017-09-12T21:29:45.982Z,65.70
2017-09-12T21:32:14.105Z,65.40
2017-09-12T21:34:42.247Z,65.30
2017-09-12T21:37:11.165Z,65.50
2017-09-12T21:39:39.281Z,66.10
2017-09-12T21:42:07.419Z,66.00
2017-09-12T21:44:35.559Z,66.10
2017-09-12T21:47:04.454Z,66.00
2017-09-12T21:49:32.612Z,66.00
2017-09-12T21:52:01.507Z,65.80
2017-09-12T21:54:30.410Z,66.10
2017-09-12T21:57:00.103Z,66.30
2017-09-12T21:59:29.009Z,66.20
2017-09-12T22:01:57.145Z,66.20
2017-09-12T22:04:25.277Z,65.90
2017-09-12T22:06:53.419Z,65.60
2017-09-12T22:09:22.304Z,65.50
2017-09-12T22:11:51.207Z,65.50
2017-09-12T22:14:19.345Z,65.50
2017-09-12T22:16:47.463Z,65.60
2017-09-12T22:19:15.594Z,65.50
2017-09-12T22:21:43.741Z,65.10
2017-09-12T22:24:11.877Z,64.70
2017-09-12T22:26:40.016Z,64.50
2017-09-12T22:29:08.141Z,64.00
2017-09-12T22:31:36.285Z,64.00
2017-09-12T22:34:05.181Z,64.20
2017-09-12T22:36:33.320Z,64.20
2017-09-12T22:39:02.292Z,65.00
2017-09-12T22:41:30.457Z,64.80
2017-09-12T22:43:58.585Z,64.90
2017-09-12T22:46:27.481Z,63.70
2017-09-12T22:48:55.604Z,63.70
2017-09-12T22:51:23.734Z,63.40
2017-09-12T22:53:51.868Z,63.00
2017-09-12T22:56:20.760Z,62.80
2017-09-12T22:58:50.431Z,62.60
2017-09-12T23:01:18.569Z,62.50
2017-09-12T23:03:46.709Z,62.30
2017-09-12T23:06:15.597Z,62.20
2017-09-12T23:08:44.511Z,62.40
2017-09-12T23:11:13.401Z,62.20
2017-09-12T23:13:41.520Z,62.20
2017-09-12T23:16:09.652Z,62.10
2017-09-12T23:18:37.789Z,62.30
2017-09-12T23:21:06.684Z,62.10
2017-09-12T23:23:35.581Z,62.00
2017-09-12T23:26:04.481Z,62.10
2017-09-12T23:28:32.634Z,62.10
2017-09-12T23:31:00.753Z,61.80
2017-09-12T23:33:28.871Z,61.70
2017-09-12T23:35:57.773Z,61.40
2017-09-12T23:38:26.666Z,61.60
2017-09-12T23:40:55.562Z,61.70
2017-09-12T23:43:24.472Z,61.50
2017-09-12T23:45:52.613Z,61.50
2017-09-12T23:48:21.506Z,61.50
2017-09-12T23:50:50.398Z,61.70
2017-09-12T23:53:19.360Z,61.70
2017-09-12T23:55:47.476Z,61.50
2017-09-12T23:58:15.615Z,61.70
